sensor_id;sensor_type;location;lat;lon;timestamp;P1;durP1;ratioP1;P2;durP2;ratioP2
3095;SDS011;1558;42.700;23.360;2022-07-29T00:02:14;11.50;;;10.50;;
3095;SDS011;1558;42.700;23.360;2022-07-29T00:04:42;12.13;;;10.93;;
3095;SDS011;1558;42.700;23.360;2022-07-29T00:07:10;11.73;;;10.73;;
3095;SDS011;1558;42.700;23.360;2022-07-29T00:09:39;12.23;;;11.00;;
3095;SDS011;1558;42.700;23.360;2022-07-29T00:12:18;11.87;;;10.87;;
3095;SDS011;1558;42.700;23.360;2022-07-29T00:14:52;12.07;;;10.97;;
3095;SDS011;1558;42.700;23.360;2022-07-29T00:17:20;12.53;;;11.37;;
3095;SDS011;1558;42.700;23.360;2022-07-29T00:19:48;12.07;;;11.03;;
3095;SDS011;1558;42.700;23.360;2022-07-29T00:22:16;11.20;;;10.20;;
3095;SDS011;1558;42.700;23.360;2022-07-29T00:24:45;12.27;;;11.27;;
3095;SDS011;1558;42.700;23.360;2022-07-29T00:27:14;13.30;;;12.00;;
3095;SDS011;1558;42.700;23.360;2022-07-29T00:29:45;12.13;;;11.03;;
3095;SDS011;1558;42.700;23.360;2022-07-29T00:32:13;13.33;;;12.27;;
3095;SDS011;1558;42.700;23.360;2022-07-29T00:34:41;13.67;;;12.47;;
3095;SDS011;1558;42.700;23.360;2022-07-29T00:37:26;13.70;;;12.53;;
3095;SDS011;1558;42.700;23.360;2022-07-29T00:39:55;15.00;;;13.40;;
3095;SDS011;1558;42.700;23.360;2022-07-29T00:42:23;15.37;;;13.83;;
3095;SDS011;1558;42.700;23.360;2022-07-29T00:44:52;14.80;;;13.47;;
3095;SDS011;1558;42.700;23.360;2022-07-29T00:47:20;14.30;;;13.10;;
3095;SDS011;1558;42.700;23.360;2022-07-29T00:49:48;14.17;;;12.90;;
3095;SDS011;1558;42.700;23.360;2022-07-29T00:52:16;14.03;;;12.73;;
3095;SDS011;1558;42.700;23.360;2022-07-29T00:54:44;14.03;;;12.80;;
3095;SDS011;1558;42.700;23.360;2022-07-29T00:57:12;15.43;;;13.97;;
3095;SDS011;1558;42.700;23.360;2022-07-29T00:59:40;14.93;;;13.73;;
3095;SDS011;1558;42.700;23.360;2022-07-29T01:02:09;15.77;;;14.17;;
3095;SDS011;1558;42.700;23.360;2022-07-29T01:04:38;22.20;;;20.20;;
3095;SDS011;1558;42.700;23.360;2022-07-29T01:07:07;17.97;;;16.20;;
3095;SDS011;1558;42.700;23.360;2022-07-29T01:09:36;17.53;;;15.83;;
3095;SDS011;1558;42.700;23.360;2022-07-29T01:12:12;18.43;;;16.80;;
3095;SDS011;1558;42.700;23.360;2022-07-29T01:14:42;18.47;;;16.63;;
3095;SDS011;1558;42.700;23.360;2022-07-29T01:17:13;17.37;;;15.87;;
3095;SDS011;1558;42.700;23.360;2022-07-29T01:19:51;18.50;;;16.90;;
3095;SDS011;1558;42.700;23.360;2022-07-29T01:22:25;18.50;;;16.70;;
3095;SDS011;1558;42.700;23.360;2022-07-29T01:25:04;19.17;;;17.27;;
3095;SDS011;1558;42.700;23.360;2022-07-29T01:27:42;19.07;;;17.37;;
3095;SDS011;1558;42.700;23.360;2022-07-29T01:30:20;18.93;;;17.20;;
3095;SDS011;1558;42.700;23.360;2022-07-29T01:32:51;19.20;;;17.50;;
3095;SDS011;1558;42.700;23.360;2022-07-29T01:35:28;18.97;;;17.27;;
3095;SDS011;1558;42.700;23.360;2022-07-29T01:38:01;21.30;;;19.20;;
3095;SDS011;1558;42.700;23.360;2022-07-29T01:40:36;22.67;;;20.73;;
3095;SDS011;1558;42.700;23.360;2022-07-29T01:43:09;26.90;;;24.30;;
3095;SDS011;1558;42.700;23.360;2022-07-29T01:45:41;26.50;;;24.27;;
3095;SDS011;1558;42.700;23.360;2022-07-29T01:48:13;28.93;;;26.07;;
3095;SDS011;1558;42.700;23.360;2022-07-29T01:50:46;27.87;;;25.50;;
3095;SDS011;1558;42.700;23.360;2022-07-29T01:53:19;24.73;;;22.57;;
3095;SDS011;1558;42.700;23.360;2022-07-29T01:55:50;22.07;;;19.93;;
3095;SDS011;1558;42.700;23.360;2022-07-29T01:58:24;22.23;;;19.93;;
3095;SDS011;1558;42.700;23.360;2022-07-29T02:00:54;21.23;;;19.23;;
3095;SDS011;1558;42.700;23.360;2022-07-29T02:03:24;22.33;;;20.10;;
3095;SDS011;1558;42.700;23.360;2022-07-29T02:05:54;21.40;;;19.17;;
3095;SDS011;1558;42.700;23.360;2022-07-29T02:08:25;20.43;;;18.53;;
3095;SDS011;1558;42.700;23.360;2022-07-29T02:10:55;20.87;;;18.93;;
3095;SDS011;1558;42.700;23.360;2022-07-29T02:13:23;19.60;;;17.80;;
3095;SDS011;1558;42.700;23.360;2022-07-29T02:15:54;21.10;;;19.00;;
3095;SDS011;1558;42.700;23.360;2022-07-29T02:18:24;20.43;;;18.47;;
3095;SDS011;1558;42.700;23.360;2022-07-29T02:20:55;21.43;;;19.23;;
3095;SDS011;1558;42.700;23.360;2022-07-29T02:23:25;20.03;;;18.03;;
3095;SDS011;1558;42.700;23.360;2022-07-29T02:25:54;20.47;;;18.53;;
3095;SDS011;1558;42.700;23.360;2022-07-29T02:28:25;21.17;;;19.23;;
3095;SDS011;1558;42.700;23.360;2022-07-29T02:30:57;19.83;;;17.83;;
3095;SDS011;1558;42.700;23.360;2022-07-29T02:33:28;21.43;;;19.53;;
3095;SDS011;1558;42.700;23.360;2022-07-29T02:35:59;21.03;;;18.93;;
3095;SDS011;1558;42.700;23.360;2022-07-29T02:38:28;22.27;;;20.07;;
3095;SDS011;1558;42.700;23.360;2022-07-29T02:41:16;21.30;;;19.33;;
3095;SDS011;1558;42.700;23.360;2022-07-29T02:43:46;21.40;;;19.30;;
3095;SDS011;1558;42.700;23.360;2022-07-29T02:46:18;21.47;;;19.43;;
3095;SDS011;1558;42.700;23.360;2022-07-29T02:48:56;21.00;;;19.10;;
3095;SDS011;1558;42.700;23.360;2022-07-29T02:51:32;21.10;;;19.10;;
3095;SDS011;1558;42.700;23.360;2022-07-29T02:54:10;20.50;;;18.60;;
3095;SDS011;1558;42.700;23.360;2022-07-29T02:56:42;20.10;;;18.20;;
3095;SDS011;1558;42.700;23.360;2022-07-29T02:59:13;19.60;;;17.80;;
3095;SDS011;1558;42.700;23.360;2022-07-29T03:01:45;19.03;;;17.33;;
3095;SDS011;1558;42.700;23.360;2022-07-29T03:04:14;17.37;;;15.87;;
3095;SDS011;1558;42.700;23.360;2022-07-29T03:06:45;17.17;;;15.67;;
3095;SDS011;1558;42.700;23.360;2022-07-29T03:09:14;17.53;;;15.93;;
3095;SDS011;1558;42.700;23.360;2022-07-29T03:11:42;17.77;;;15.83;;
3095;SDS011;1558;42.700;23.360;2022-07-29T03:14:16;17.33;;;15.60;;
3095;SDS011;1558;42.700;23.360;2022-07-29T03:16:48;16.53;;;14.90;;
3095;SDS011;1558;42.700;23.360;2022-07-29T03:19:17;17.03;;;15.43;;
3095;SDS011;1558;42.700;23.360;2022-07-29T03:21:46;17.40;;;15.80;;
3095;SDS011;1558;42.700;23.360;2022-07-29T03:24:25;17.67;;;16.10;;
3095;SDS011;1558;42.700;23.360;2022-07-29T03:26:57;21.50;;;19.50;;
3095;SDS011;1558;42.700;23.360;2022-07-29T03:29:25;34.43;;;31.70;;
3095;SDS011;1558;42.700;23.360;2022-07-29T03:32:01;22.43;;;20.53;;
3095;SDS011;1558;42.700;23.360;2022-07-29T03:34:34;22.73;;;20.67;;
3095;SDS011;1558;42.700;23.360;2022-07-29T03:37:03;22.47;;;20.43;;
3095;SDS011;1558;42.700;23.360;2022-07-29T03:39:33;23.57;;;21.50;;
3095;SDS011;1558;42.700;23.360;2022-07-29T03:42:06;20.17;;;18.40;;
3095;SDS011;1558;42.700;23.360;2022-07-29T03:44:38;20.97;;;19.07;;
3095;SDS011;1558;42.700;23.360;2022-07-29T03:47:10;20.53;;;18.40;;
3095;SDS011;1558;42.700;23.360;2022-07-29T03:49:41;20.10;;;18.43;;
3095;SDS011;1558;42.700;23.360;2022-07-29T03:52:11;20.00;;;18.20;;
3095;SDS011;1558;42.700;23.360;2022-07-29T03:54:40;19.57;;;17.77;;
3095;SDS011;1558;42.700;23.360;2022-07-29T03:57:08;20.23;;;18.27;;
3095;SDS011;1558;42.700;23.360;2022-07-29T03:59:40;18.23;;;16.63;;
3095;SDS011;1558;42.700;23.360;2022-07-29T04:02:11;19.20;;;17.37;;
3095;SDS011;1558;42.700;23.360;2022-07-29T04:04:47;19.90;;;17.93;;
3095;SDS011;1558;42.700;23.360;2022-07-29T04:07:15;17.87;;;16.13;;
3095;SDS011;1558;42.700;23.360;2022-07-29T04:09:43;17.20;;;15.60;;
3095;SDS011;1558;42.700;23.360;2022-07-29T04:12:11;18.67;;;16.47;;
3095;SDS011;1558;42.700;23.360;2022-07-29T04:14:38;17.13;;;15.63;;
3095;SDS011;1558;42.700;23.360;2022-07-29T04:17:06;17.10;;;15.50;;
3095;SDS011;1558;42.700;23.360;2022-07-29T04:19:36;16.07;;;14.57;;
3095;SDS011;1558;42.700;23.360;2022-07-29T04:22:04;15.73;;;14.20;;
3095;SDS011;1558;42.700;23.360;2022-07-29T04:24:32;14.83;;;13.63;;
3095;SDS011;1558;42.700;23.360;2022-07-29T04:27:00;15.37;;;13.97;;
3095;SDS011;1558;42.700;23.360;2022-07-29T04:29:27;14.87;;;13.47;;
3095;SDS011;1558;42.700;23.360;2022-07-29T04:31:55;15.57;;;14.20;;
3095;SDS011;1558;42.700;23.360;2022-07-29T04:34:23;15.23;;;13.87;;
3095;SDS011;1558;42.700;23.360;2022-07-29T04:36:54;16.73;;;15.17;;
3095;SDS011;1558;42.700;23.360;2022-07-29T04:39:22;15.40;;;14.10;;
3095;SDS011;1558;42.700;23.360;2022-07-29T04:41:54;14.70;;;13.33;;
3095;SDS011;1558;42.700;23.360;2022-07-29T04:44:24;16.00;;;14.40;;
3095;SDS011;1558;42.700;23.360;2022-07-29T04:46:54;17.67;;;14.00;;
3095;SDS011;1558;42.700;23.360;2022-07-29T04:49:23;14.93;;;13.57;;
3095;SDS011;1558;42.700;23.360;2022-07-29T04:51:51;15.23;;;13.83;;
3095;SDS011;1558;42.700;23.360;2022-07-29T04:54:21;13.37;;;10.93;;
3095;SDS011;1558;42.700;23.360;2022-07-29T04:56:50;11.63;;;10.63;;
3095;SDS011;1558;42.700;23.360;2022-07-29T04:59:19;12.37;;;11.17;;
3095;SDS011;1558;42.700;23.360;2022-07-29T05:01:47;11.90;;;10.80;;
3095;SDS011;1558;42.700;23.360;2022-07-29T05:04:15;11.13;;;10.10;;
3095;SDS011;1558;42.700;23.360;2022-07-29T05:06:46;11.70;;;10.33;;
3095;SDS011;1558;42.700;23.360;2022-07-29T05:09:14;11.65;;;10.50;;
3095;SDS011;1558;42.700;23.360;2022-07-29T05:11:44;11.13;;;10.23;;
3095;SDS011;1558;42.700;23.360;2022-07-29T05:14:11;11.27;;;10.27;;
3095;SDS011;1558;42.700;23.360;2022-07-29T05:16:41;11.13;;;10.05;;
3095;SDS011;1558;42.700;23.360;2022-07-29T05:19:09;11.45;;;10.35;;
3095;SDS011;1558;42.700;23.360;2022-07-29T05:21:40;11.40;;;10.40;;
3095;SDS011;1558;42.700;23.360;2022-07-29T05:24:08;11.90;;;10.90;;
3095;SDS011;1558;42.700;23.360;2022-07-29T05:26:36;11.63;;;10.45;;
3095;SDS011;1558;42.700;23.360;2022-07-29T05:29:05;11.18;;;10.27;;
3095;SDS011;1558;42.700;23.360;2022-07-29T05:31:53;12.63;;;11.30;;
3095;SDS011;1558;42.700;23.360;2022-07-29T05:34:21;11.20;;;10.00;;
3095;SDS011;1558;42.700;23.360;2022-07-29T05:36:50;11.98;;;10.75;;
3095;SDS011;1558;42.700;23.360;2022-07-29T05:39:18;10.82;;;9.90;;
3095;SDS011;1558;42.700;23.360;2022-07-29T05:41:46;9.18;;;8.48;;
3095;SDS011;1558;42.700;23.360;2022-07-29T05:44:18;9.95;;;9.05;;
3095;SDS011;1558;42.700;23.360;2022-07-29T05:46:50;10.10;;;9.20;;
3095;SDS011;1558;42.700;23.360;2022-07-29T05:49:18;9.45;;;8.75;;
3095;SDS011;1558;42.700;23.360;2022-07-29T05:51:52;9.82;;;9.10;;
3095;SDS011;1558;42.700;23.360;2022-07-29T05:54:20;11.02;;;10.13;;
3095;SDS011;1558;42.700;23.360;2022-07-29T05:56:48;7.75;;;7.15;;
3095;SDS011;1558;42.700;23.360;2022-07-29T05:59:16;9.73;;;8.93;;
3095;SDS011;1558;42.700;23.360;2022-07-29T06:01:45;9.43;;;8.52;;
3095;SDS011;1558;42.700;23.360;2022-07-29T06:04:13;7.45;;;6.80;;
3095;SDS011;1558;42.700;23.360;2022-07-29T06:06:42;7.68;;;7.07;;
3095;SDS011;1558;42.700;23.360;2022-07-29T06:09:10;7.43;;;6.88;;
3095;SDS011;1558;42.700;23.360;2022-07-29T06:11:39;7.45;;;6.85;;
3095;SDS011;1558;42.700;23.360;2022-07-29T06:14:07;9.15;;;7.20;;
3095;SDS011;1558;42.700;23.360;2022-07-29T06:16:35;8.18;;;7.47;;
3095;SDS011;1558;42.700;23.360;2022-07-29T06:19:05;7.85;;;7.07;;
3095;SDS011;1558;42.700;23.360;2022-07-29T06:21:35;6.80;;;6.30;;
3095;SDS011;1558;42.700;23.360;2022-07-29T06:24:07;7.50;;;6.80;;
3095;SDS011;1558;42.700;23.360;2022-07-29T06:26:35;7.55;;;6.88;;
3095;SDS011;1558;42.700;23.360;2022-07-29T06:29:05;7.75;;;7.15;;
3095;SDS011;1558;42.700;23.360;2022-07-29T06:31:34;8.18;;;7.38;;
3095;SDS011;1558;42.700;23.360;2022-07-29T06:34:02;7.75;;;7.10;;
3095;SDS011;1558;42.700;23.360;2022-07-29T06:36:33;8.30;;;7.55;;
3095;SDS011;1558;42.700;23.360;2022-07-29T06:39:03;6.82;;;6.32;;
3095;SDS011;1558;42.700;23.360;2022-07-29T06:41:33;7.80;;;6.38;;
3095;SDS011;1558;42.700;23.360;2022-07-29T06:44:02;6.90;;;6.40;;
3095;SDS011;1558;42.700;23.360;2022-07-29T06:46:30;6.85;;;6.25;;
3095;SDS011;1558;42.700;23.360;2022-07-29T06:48:59;7.88;;;6.28;;
3095;SDS011;1558;42.700;23.360;2022-07-29T06:51:28;7.05;;;6.38;;
3095;SDS011;1558;42.700;23.360;2022-07-29T06:53:58;8.38;;;6.63;;
3095;SDS011;1558;42.700;23.360;2022-07-29T06:56:29;5.80;;;5.40;;
3095;SDS011;1558;42.700;23.360;2022-07-29T06:59:05;6.72;;;6.07;;
3095;SDS011;1558;42.700;23.360;2022-07-29T07:01:35;5.78;;;5.28;;
3095;SDS011;1558;42.700;23.360;2022-07-29T07:04:04;7.82;;;5.85;;
3095;SDS011;1558;42.700;23.360;2022-07-29T07:06:32;6.38;;;5.55;;
3095;SDS011;1558;42.700;23.360;2022-07-29T07:09:01;7.50;;;5.50;;
3095;SDS011;1558;42.700;23.360;2022-07-29T07:11:29;5.70;;;5.30;;
3095;SDS011;1558;42.700;23.360;2022-07-29T07:13:57;5.57;;;5.15;;
3095;SDS011;1558;42.700;23.360;2022-07-29T07:16:28;6.05;;;5.32;;
3095;SDS011;1558;42.700;23.360;2022-07-29T07:18:57;6.25;;;5.75;;
3095;SDS011;1558;42.700;23.360;2022-07-29T07:21:25;7.03;;;5.20;;
3095;SDS011;1558;42.700;23.360;2022-07-29T07:23:56;5.60;;;5.20;;
3095;SDS011;1558;42.700;23.360;2022-07-29T07:26:25;6.40;;;5.63;;
3095;SDS011;1558;42.700;23.360;2022-07-29T07:28:53;5.80;;;5.40;;
3095;SDS011;1558;42.700;23.360;2022-07-29T07:31:21;5.95;;;5.45;;
3095;SDS011;1558;42.700;23.360;2022-07-29T07:33:49;7.13;;;5.70;;
3095;SDS011;1558;42.700;23.360;2022-07-29T07:36:17;6.30;;;5.70;;
3095;SDS011;1558;42.700;23.360;2022-07-29T07:38:45;5.80;;;5.38;;
3095;SDS011;1558;42.700;23.360;2022-07-29T07:41:13;6.80;;;6.30;;
3095;SDS011;1558;42.700;23.360;2022-07-29T07:43:43;5.93;;;5.53;;
3095;SDS011;1558;42.700;23.360;2022-07-29T07:46:11;6.30;;;5.40;;
3095;SDS011;1558;42.700;23.360;2022-07-29T07:48:39;6.20;;;5.70;;
3095;SDS011;1558;42.700;23.360;2022-07-29T07:51:07;5.95;;;5.32;;
3095;SDS011;1558;42.700;23.360;2022-07-29T07:53:35;6.43;;;5.13;;
3095;SDS011;1558;42.700;23.360;2022-07-29T07:56:03;5.97;;;5.57;;
3095;SDS011;1558;42.700;23.360;2022-07-29T07:58:37;5.95;;;5.45;;
3095;SDS011;1558;42.700;23.360;2022-07-29T08:01:07;5.40;;;5.00;;
3095;SDS011;1558;42.700;23.360;2022-07-29T08:03:36;5.38;;;4.97;;
3095;SDS011;1558;42.700;23.360;2022-07-29T08:06:05;5.43;;;4.95;;
3095;SDS011;1558;42.700;23.360;2022-07-29T08:08:33;5.45;;;5.00;;
3095;SDS011;1558;42.700;23.360;2022-07-29T08:11:01;5.55;;;5.05;;
3095;SDS011;1558;42.700;23.360;2022-07-29T08:13:35;5.25;;;4.78;;
3095;SDS011;1558;42.700;23.360;2022-07-29T08:16:04;5.53;;;5.03;;
3095;SDS011;1558;42.700;23.360;2022-07-29T08:18:44;5.90;;;5.18;;
3095;SDS011;1558;42.700;23.360;2022-07-29T08:21:13;5.55;;;5.15;;
3095;SDS011;1558;42.700;23.360;2022-07-29T08:23:43;5.68;;;5.18;;
3095;SDS011;1558;42.700;23.360;2022-07-29T08:26:26;5.47;;;5.07;;
3095;SDS011;1558;42.700;23.360;2022-07-29T08:28:54;5.72;;;5.22;;
3095;SDS011;1558;42.700;23.360;2022-07-29T08:31:22;5.85;;;4.93;;
3095;SDS011;1558;42.700;23.360;2022-07-29T08:33:51;5.38;;;4.90;;
3095;SDS011;1558;42.700;23.360;2022-07-29T08:36:19;5.05;;;4.65;;
3095;SDS011;1558;42.700;23.360;2022-07-29T08:38:48;5.13;;;4.70;;
3095;SDS011;1558;42.700;23.360;2022-07-29T08:41:17;5.13;;;4.70;;
3095;SDS011;1558;42.700;23.360;2022-07-29T08:43:46;5.20;;;4.70;;
3095;SDS011;1558;42.700;23.360;2022-07-29T08:46:14;5.32;;;4.93;;
3095;SDS011;1558;42.700;23.360;2022-07-29T08:48:43;5.63;;;4.93;;
3095;SDS011;1558;42.700;23.360;2022-07-29T08:51:14;5.03;;;4.60;;
3095;SDS011;1558;42.700;23.360;2022-07-29T08:53:44;7.68;;;6.93;;
3095;SDS011;1558;42.700;23.360;2022-07-29T08:56:14;5.25;;;4.85;;
3095;SDS011;1558;42.700;23.360;2022-07-29T08:58:44;5.18;;;4.85;;
3095;SDS011;1558;42.700;23.360;2022-07-29T09:01:21;5.85;;;5.35;;
3095;SDS011;1558;42.700;23.360;2022-07-29T09:04:03;5.38;;;4.88;;
3095;SDS011;1558;42.700;23.360;2022-07-29T09:06:34;5.60;;;5.20;;
3095;SDS011;1558;42.700;23.360;2022-07-29T09:09:07;4.90;;;4.50;;
3095;SDS011;1558;42.700;23.360;2022-07-29T09:11:35;5.05;;;4.75;;
3095;SDS011;1558;42.700;23.360;2022-07-29T09:14:03;5.20;;;4.90;;
3095;SDS011;1558;42.700;23.360;2022-07-29T09:16:48;5.47;;;4.50;;
3095;SDS011;1558;42.700;23.360;2022-07-29T09:19:21;5.28;;;4.97;;
3095;SDS011;1558;42.700;23.360;2022-07-29T09:21:52;5.07;;;4.65;;
3095;SDS011;1558;42.700;23.360;2022-07-29T09:24:41;5.22;;;4.72;;
3095;SDS011;1558;42.700;23.360;2022-07-29T09:27:11;6.22;;;4.72;;
3095;SDS011;1558;42.700;23.360;2022-07-29T09:29:54;4.80;;;4.50;;
3095;SDS011;1558;42.700;23.360;2022-07-29T09:32:23;5.80;;;5.30;;
3095;SDS011;1558;42.700;23.360;2022-07-29T09:34:58;6.72;;;5.35;;
3095;SDS011;1558;42.700;23.360;2022-07-29T09:37:43;5.10;;;4.80;;
3095;SDS011;1558;42.700;23.360;2022-07-29T09:40:11;5.65;;;5.15;;
3095;SDS011;1558;42.700;23.360;2022-07-29T09:42:42;5.85;;;5.07;;
3095;SDS011;1558;42.700;23.360;2022-07-29T09:45:11;6.10;;;5.60;;
3095;SDS011;1558;42.700;23.360;2022-07-29T09:47:43;5.72;;;5.10;;
3095;SDS011;1558;42.700;23.360;2022-07-29T09:50:15;5.60;;;5.03;;
3095;SDS011;1558;42.700;23.360;2022-07-29T09:52:48;5.68;;;5.28;;
3095;SDS011;1558;42.700;23.360;2022-07-29T09:55:17;4.80;;;4.38;;
3095;SDS011;1558;42.700;23.360;2022-07-29T09:57:45;4.65;;;4.20;;
3095;SDS011;1558;42.700;23.360;2022-07-29T10:00:14;5.50;;;4.72;;
3095;SDS011;1558;42.700;23.360;2022-07-29T10:02:44;4.88;;;4.47;;
3095;SDS011;1558;42.700;23.360;2022-07-29T10:05:18;4.30;;;3.90;;
3095;SDS011;1558;42.700;23.360;2022-07-29T10:07:50;4.50;;;4.10;;
3095;SDS011;1558;42.700;23.360;2022-07-29T10:10:23;5.32;;;4.82;;
3095;SDS011;1558;42.700;23.360;2022-07-29T10:12:53;5.82;;;5.28;;
3095;SDS011;1558;42.700;23.360;2022-07-29T10:15:34;4.78;;;4.47;;
3095;SDS011;1558;42.700;23.360;2022-07-29T10:18:05;5.05;;;4.68;;
3095;SDS011;1558;42.700;23.360;2022-07-29T10:20:34;5.15;;;4.75;;
3095;SDS011;1558;42.700;23.360;2022-07-29T10:23:04;6.90;;;4.78;;
3095;SDS011;1558;42.700;23.360;2022-07-29T10:25:32;6.10;;;4.30;;
3095;SDS011;1558;42.700;23.360;2022-07-29T10:28:00;5.28;;;4.85;;
3095;SDS011;1558;42.700;23.360;2022-07-29T10:30:29;6.10;;;5.50;;
3095;SDS011;1558;42.700;23.360;2022-07-29T10:33:07;4.80;;;4.40;;
3095;SDS011;1558;42.700;23.360;2022-07-29T10:35:58;5.18;;;4.78;;
3095;SDS011;1558;42.700;23.360;2022-07-29T10:38:47;4.30;;;4.07;;
3095;SDS011;1558;42.700;23.360;2022-07-29T10:41:24;4.90;;;4.60;;
3095;SDS011;1558;42.700;23.360;2022-07-29T10:44:13;5.28;;;4.88;;
3095;SDS011;1558;42.700;23.360;2022-07-29T10:47:03;5.50;;;5.10;;
3095;SDS011;1558;42.700;23.360;2022-07-29T10:49:32;5.13;;;4.72;;
3095;SDS011;1558;42.700;23.360;2022-07-29T10:52:01;4.78;;;4.38;;
3095;SDS011;1558;42.700;23.360;2022-07-29T10:54:52;5.28;;;4.95;;
3095;SDS011;1558;42.700;23.360;2022-07-29T10:57:25;4.88;;;4.57;;
3095;SDS011;1558;42.700;23.360;2022-07-29T11:00:31;5.65;;;5.25;;
3095;SDS011;1558;42.700;23.360;2022-07-29T11:03:00;4.85;;;4.32;;
3095;SDS011;1558;42.700;23.360;2022-07-29T11:08:21;5.43;;;4.95;;
3095;SDS011;1558;42.700;23.360;2022-07-29T11:14:01;5.80;;;5.25;;
3095;SDS011;1558;42.700;23.360;2022-07-29T11:19:49;5.03;;;4.65;;
3095;SDS011;1558;42.700;23.360;2022-07-29T11:22:31;6.40;;;5.55;;
3095;SDS011;1558;42.700;23.360;2022-07-29T11:25:12;6.18;;;5.63;;
3095;SDS011;1558;42.700;23.360;2022-07-29T11:27:42;5.53;;;5.15;;
3095;SDS011;1558;42.700;23.360;2022-07-29T11:30:14;5.68;;;5.25;;
3095;SDS011;1558;42.700;23.360;2022-07-29T11:32:43;6.32;;;5.93;;
3095;SDS011;1558;42.700;23.360;2022-07-29T11:35:15;8.25;;;5.72;;
3095;SDS011;1558;42.700;23.360;2022-07-29T11:43:53;6.20;;;5.70;;
3095;SDS011;1558;42.700;23.360;2022-07-29T11:49:19;6.30;;;5.78;;
3095;SDS011;1558;42.700;23.360;2022-07-29T11:52:09;6.10;;;5.47;;
3095;SDS011;1558;42.700;23.360;2022-07-29T11:54:38;5.93;;;5.35;;
3095;SDS011;1558;42.700;23.360;2022-07-29T11:57:25;6.90;;;6.40;;
3095;SDS011;1558;42.700;23.360;2022-07-29T12:00:03;6.60;;;6.15;;
3095;SDS011;1558;42.700;23.360;2022-07-29T12:02:39;6.30;;;5.57;;
3095;SDS011;1558;42.700;23.360;2022-07-29T12:05:13;6.75;;;6.05;;
3095;SDS011;1558;42.700;23.360;2022-07-29T12:08:05;6.75;;;6.15;;
3095;SDS011;1558;42.700;23.360;2022-07-29T12:10:40;6.40;;;5.90;;
3095;SDS011;1558;42.700;23.360;2022-07-29T12:13:08;6.18;;;5.78;;
3095;SDS011;1558;42.700;23.360;2022-07-29T12:15:37;6.03;;;5.57;;
3095;SDS011;1558;42.700;23.360;2022-07-29T12:18:17;6.47;;;5.97;;
3095;SDS011;1558;42.700;23.360;2022-07-29T12:20:56;6.70;;;6.03;;
3095;SDS011;1558;42.700;23.360;2022-07-29T12:23:29;6.72;;;6.15;;
3095;SDS011;1558;42.700;23.360;2022-07-29T12:26:00;6.85;;;6.35;;
3095;SDS011;1558;42.700;23.360;2022-07-29T12:28:36;7.40;;;6.70;;
3095;SDS011;1558;42.700;23.360;2022-07-29T12:31:05;7.10;;;6.40;;
3095;SDS011;1558;42.700;23.360;2022-07-29T12:33:35;7.10;;;6.50;;
3095;SDS011;1558;42.700;23.360;2022-07-29T12:36:03;6.80;;;6.35;;
3095;SDS011;1558;42.700;23.360;2022-07-29T12:38:32;7.05;;;6.55;;
3095;SDS011;1558;42.700;23.360;2022-07-29T12:41:02;7.35;;;6.85;;
3095;SDS011;1558;42.700;23.360;2022-07-29T12:43:30;7.10;;;6.50;;
3095;SDS011;1558;42.700;23.360;2022-07-29T12:46:00;7.15;;;6.65;;
3095;SDS011;1558;42.700;23.360;2022-07-29T12:48:42;7.13;;;6.60;;
3095;SDS011;1558;42.700;23.360;2022-07-29T12:51:10;7.22;;;6.70;;
3095;SDS011;1558;42.700;23.360;2022-07-29T12:53:40;6.80;;;6.30;;
3095;SDS011;1558;42.700;23.360;2022-07-29T12:56:14;7.07;;;6.57;;
3095;SDS011;1558;42.700;23.360;2022-07-29T12:59:11;7.63;;;6.90;;
3095;SDS011;1558;42.700;23.360;2022-07-29T13:01:40;7.40;;;6.90;;
3095;SDS011;1558;42.700;23.360;2022-07-29T13:04:09;7.43;;;6.93;;
3095;SDS011;1558;42.700;23.360;2022-07-29T13:06:38;7.63;;;6.70;;
3095;SDS011;1558;42.700;23.360;2022-07-29T13:09:15;7.75;;;7.05;;
3095;SDS011;1558;42.700;23.360;2022-07-29T13:11:46;6.70;;;6.20;;
3095;SDS011;1558;42.700;23.360;2022-07-29T13:14:29;7.03;;;6.53;;
3095;SDS011;1558;42.700;23.360;2022-07-29T13:16:59;7.38;;;6.82;;
3095;SDS011;1558;42.700;23.360;2022-07-29T13:19:34;6.72;;;6.28;;
3095;SDS011;1558;42.700;23.360;2022-07-29T13:22:03;10.45;;;8.60;;
3095;SDS011;1558;42.700;23.360;2022-07-29T13:24:32;7.38;;;6.68;;
3095;SDS011;1558;42.700;23.360;2022-07-29T13:27:00;6.95;;;6.45;;
3095;SDS011;1558;42.700;23.360;2022-07-29T13:29:31;8.45;;;7.75;;
3095;SDS011;1558;42.700;23.360;2022-07-29T13:31:59;7.25;;;6.75;;
3095;SDS011;1558;42.700;23.360;2022-07-29T13:34:27;6.85;;;6.43;;
3095;SDS011;1558;42.700;23.360;2022-07-29T13:36:56;7.07;;;6.53;;
3095;SDS011;1558;42.700;23.360;2022-07-29T13:39:24;6.97;;;6.32;;
3095;SDS011;1558;42.700;23.360;2022-07-29T13:41:52;6.95;;;6.45;;
3095;SDS011;1558;42.700;23.360;2022-07-29T13:44:22;7.38;;;6.78;;
3095;SDS011;1558;42.700;23.360;2022-07-29T13:46:50;7.22;;;6.57;;
3095;SDS011;1558;42.700;23.360;2022-07-29T13:49:18;7.10;;;6.45;;
3095;SDS011;1558;42.700;23.360;2022-07-29T13:51:46;7.32;;;6.70;;
3095;SDS011;1558;42.700;23.360;2022-07-29T13:54:15;6.88;;;6.03;;
3095;SDS011;1558;42.700;23.360;2022-07-29T13:56:44;7.45;;;6.85;;
3095;SDS011;1558;42.700;23.360;2022-07-29T13:59:12;6.90;;;6.30;;
3095;SDS011;1558;42.700;23.360;2022-07-29T14:01:40;7.22;;;6.70;;
3095;SDS011;1558;42.700;23.360;2022-07-29T14:04:10;7.53;;;6.80;;
3095;SDS011;1558;42.700;23.360;2022-07-29T14:06:39;7.82;;;7.28;;
3095;SDS011;1558;42.700;23.360;2022-07-29T14:09:07;7.47;;;6.82;;
3095;SDS011;1558;42.700;23.360;2022-07-29T14:11:36;7.28;;;6.57;;
3095;SDS011;1558;42.700;23.360;2022-07-29T14:14:05;7.22;;;6.53;;
3095;SDS011;1558;42.700;23.360;2022-07-29T14:16:32;7.05;;;6.47;;
3095;SDS011;1558;42.700;23.360;2022-07-29T14:19:07;7.45;;;6.18;;
3095;SDS011;1558;42.700;23.360;2022-07-29T14:21:36;6.53;;;6.13;;
3095;SDS011;1558;42.700;23.360;2022-07-29T14:24:05;7.40;;;6.70;;
3095;SDS011;1558;42.700;23.360;2022-07-29T14:26:48;6.70;;;6.20;;
3095;SDS011;1558;42.700;23.360;2022-07-29T14:29:16;7.30;;;6.35;;
3095;SDS011;1558;42.700;23.360;2022-07-29T14:31:44;6.70;;;6.20;;
3095;SDS011;1558;42.700;23.360;2022-07-29T14:34:12;7.15;;;6.57;;
3095;SDS011;1558;42.700;23.360;2022-07-29T14:36:41;6.75;;;6.22;;
3095;SDS011;1558;42.700;23.360;2022-07-29T14:39:10;7.25;;;6.68;;
3095;SDS011;1558;42.700;23.360;2022-07-29T14:41:37;7.13;;;6.53;;
3095;SDS011;1558;42.700;23.360;2022-07-29T14:44:07;7.70;;;7.10;;
3095;SDS011;1558;42.700;23.360;2022-07-29T14:46:35;8.48;;;6.45;;
3095;SDS011;1558;42.700;23.360;2022-07-29T14:49:03;7.05;;;6.55;;
3095;SDS011;1558;42.700;23.360;2022-07-29T14:51:34;7.40;;;6.90;;
3095;SDS011;1558;42.700;23.360;2022-07-29T14:54:02;7.00;;;6.50;;
3095;SDS011;1558;42.700;23.360;2022-07-29T14:56:30;6.97;;;6.45;;
3095;SDS011;1558;42.700;23.360;2022-07-29T14:59:02;7.15;;;6.55;;
3095;SDS011;1558;42.700;23.360;2022-07-29T15:01:33;7.13;;;6.53;;
3095;SDS011;1558;42.700;23.360;2022-07-29T15:04:01;7.32;;;6.60;;
3095;SDS011;1558;42.700;23.360;2022-07-29T15:06:29;7.40;;;6.20;;
3095;SDS011;1558;42.700;23.360;2022-07-29T15:08:57;7.10;;;6.60;;
3095;SDS011;1558;42.700;23.360;2022-07-29T15:11:25;7.25;;;6.65;;
3095;SDS011;1558;42.700;23.360;2022-07-29T15:13:53;8.30;;;7.57;;
3095;SDS011;1558;42.700;23.360;2022-07-29T15:16:21;7.72;;;7.03;;
3095;SDS011;1558;42.700;23.360;2022-07-29T15:18:50;7.15;;;6.53;;
3095;SDS011;1558;42.700;23.360;2022-07-29T15:21:18;7.55;;;6.85;;
3095;SDS011;1558;42.700;23.360;2022-07-29T15:23:46;7.78;;;7.18;;
3095;SDS011;1558;42.700;23.360;2022-07-29T15:26:14;7.78;;;7.18;;
3095;SDS011;1558;42.700;23.360;2022-07-29T15:28:42;8.02;;;7.22;;
3095;SDS011;1558;42.700;23.360;2022-07-29T15:31:10;8.77;;;7.40;;
3095;SDS011;1558;42.700;23.360;2022-07-29T15:33:39;7.28;;;6.68;;